sensor_id;sensor_type;location;lat;lon;timestamp;P1;durP1;ratioP1;P2;durP2;ratioP2
69511;SDS011;70777;52.034;4.644;2023-09-18T00:00:31;41.20;;;24.70;;
69511;SDS011;70777;52.034;4.644;2023-09-18T00:03:00;39.35;;;24.83;;
69511;SDS011;70777;52.034;4.644;2023-09-18T00:05:28;38.47;;;23.33;;
69511;SDS011;70777;52.034;4.644;2023-09-18T00:07:53;34.63;;;21.88;;
69511;SDS011;70777;52.034;4.644;2023-09-18T00:10:18;35.08;;;24.17;;
69511;SDS011;70777;52.034;4.644;2023-09-18T00:12:44;36.75;;;22.30;;
69511;SDS011;70777;52.034;4.644;2023-09-18T00:15:09;43.70;;;24.42;;
69511;SDS011;70777;52.034;4.644;2023-09-18T00:17:35;35.15;;;22.65;;
69511;SDS011;70777;52.034;4.644;2023-09-18T00:20:01;45.00;;;25.70;;
69511;SDS011;70777;52.034;4.644;2023-09-18T00:22:31;36.58;;;22.50;;
69511;SDS011;70777;52.034;4.644;2023-09-18T00:24:56;35.78;;;23.13;;
69511;SDS011;70777;52.034;4.644;2023-09-18T00:27:22;32.60;;;21.30;;
69511;SDS011;70777;52.034;4.644;2023-09-18T00:29:48;35.58;;;24.77;;
69511;SDS011;70777;52.034;4.644;2023-09-18T00:32:13;36.88;;;23.08;;
69511;SDS011;70777;52.034;4.644;2023-09-18T00:34:39;32.80;;;23.23;;
69511;SDS011;70777;52.034;4.644;2023-09-18T00:37:04;33.33;;;21.45;;
69511;SDS011;70777;52.034;4.644;2023-09-18T00:39:30;36.63;;;23.35;;
69511;SDS011;70777;52.034;4.644;2023-09-18T00:41:56;44.35;;;26.13;;
69511;SDS011;70777;52.034;4.644;2023-09-18T00:44:22;37.45;;;24.67;;
69511;SDS011;70777;52.034;4.644;2023-09-18T00:46:51;33.45;;;23.95;;
69511;SDS011;70777;52.034;4.644;2023-09-18T00:49:17;34.72;;;23.73;;
69511;SDS011;70777;52.034;4.644;2023-09-18T00:51:44;37.13;;;24.08;;
69511;SDS011;70777;52.034;4.644;2023-09-18T00:54:09;38.22;;;23.60;;
69511;SDS011;70777;52.034;4.644;2023-09-18T00:56:35;33.05;;;22.67;;
69511;SDS011;70777;52.034;4.644;2023-09-18T00:59:00;39.38;;;24.73;;
69511;SDS011;70777;52.034;4.644;2023-09-18T01:01:28;43.67;;;24.98;;
69511;SDS011;70777;52.034;4.644;2023-09-18T01:03:55;38.33;;;24.55;;
69511;SDS011;70777;52.034;4.644;2023-09-18T01:06:20;37.63;;;25.33;;
69511;SDS011;70777;52.034;4.644;2023-09-18T01:08:47;34.55;;;23.90;;
69511;SDS011;70777;52.034;4.644;2023-09-18T01:11:34;38.88;;;24.13;;
69511;SDS011;70777;52.034;4.644;2023-09-18T01:16:39;40.47;;;23.40;;
69511;SDS011;70777;52.034;4.644;2023-09-18T01:19:10;34.03;;;23.25;;
69511;SDS011;70777;52.034;4.644;2023-09-18T01:21:36;37.63;;;24.15;;
69511;SDS011;70777;52.034;4.644;2023-09-18T01:24:01;34.22;;;21.95;;
69511;SDS011;70777;52.034;4.644;2023-09-18T01:26:26;36.88;;;24.63;;
69511;SDS011;70777;52.034;4.644;2023-09-18T01:28:52;38.05;;;24.80;;
69511;SDS011;70777;52.034;4.644;2023-09-18T01:31:17;39.35;;;24.85;;
69511;SDS011;70777;52.034;4.644;2023-09-18T01:33:43;35.53;;;23.83;;
69511;SDS011;70777;52.034;4.644;2023-09-18T01:36:09;37.75;;;23.65;;
69511;SDS011;70777;52.034;4.644;2023-09-18T01:38:36;36.80;;;24.13;;
69511;SDS011;70777;52.034;4.644;2023-09-18T01:41:01;40.45;;;25.90;;
69511;SDS011;70777;52.034;4.644;2023-09-18T01:43:27;42.63;;;26.63;;
69511;SDS011;70777;52.034;4.644;2023-09-18T01:45:53;44.15;;;25.65;;
69511;SDS011;70777;52.034;4.644;2023-09-18T01:48:19;36.72;;;24.73;;
69511;SDS011;70777;52.034;4.644;2023-09-18T01:50:45;36.42;;;24.25;;
69511;SDS011;70777;52.034;4.644;2023-09-18T01:53:10;40.15;;;25.35;;
69511;SDS011;70777;52.034;4.644;2023-09-18T01:55:36;37.85;;;24.75;;
69511;SDS011;70777;52.034;4.644;2023-09-18T01:58:01;35.45;;;24.92;;
69511;SDS011;70777;52.034;4.644;2023-09-18T02:00:27;42.00;;;25.88;;
69511;SDS011;70777;52.034;4.644;2023-09-18T02:02:53;43.00;;;25.83;;
69511;SDS011;70777;52.034;4.644;2023-09-18T02:05:18;39.35;;;25.35;;
69511;SDS011;70777;52.034;4.644;2023-09-18T02:07:44;41.30;;;25.15;;
69511;SDS011;70777;52.034;4.644;2023-09-18T02:10:09;42.17;;;25.85;;
69511;SDS011;70777;52.034;4.644;2023-09-18T02:12:37;37.35;;;23.77;;
69511;SDS011;70777;52.034;4.644;2023-09-18T02:15:03;35.88;;;23.98;;
69511;SDS011;70777;52.034;4.644;2023-09-18T02:17:31;38.80;;;24.67;;
69511;SDS011;70777;52.034;4.644;2023-09-18T02:19:56;33.60;;;23.33;;
69511;SDS011;70777;52.034;4.644;2023-09-18T02:22:22;35.90;;;25.95;;
69511;SDS011;70777;52.034;4.644;2023-09-18T02:24:47;33.55;;;23.92;;
69511;SDS011;70777;52.034;4.644;2023-09-18T02:27:13;38.45;;;23.83;;
69511;SDS011;70777;52.034;4.644;2023-09-18T02:29:38;35.55;;;23.50;;
69511;SDS011;70777;52.034;4.644;2023-09-18T02:32:04;38.58;;;23.38;;
69511;SDS011;70777;52.034;4.644;2023-09-18T02:34:29;42.13;;;26.23;;
69511;SDS011;70777;52.034;4.644;2023-09-18T02:36:55;37.33;;;24.63;;
69511;SDS011;70777;52.034;4.644;2023-09-18T02:39:20;35.17;;;24.27;;
69511;SDS011;70777;52.034;4.644;2023-09-18T02:41:46;35.33;;;23.27;;
69511;SDS011;70777;52.034;4.644;2023-09-18T02:44:11;35.45;;;23.80;;
69511;SDS011;70777;52.034;4.644;2023-09-18T02:46:37;37.50;;;24.17;;
69511;SDS011;70777;52.034;4.644;2023-09-18T02:49:03;36.10;;;23.75;;
69511;SDS011;70777;52.034;4.644;2023-09-18T02:51:29;35.38;;;23.88;;
69511;SDS011;70777;52.034;4.644;2023-09-18T02:53:56;35.47;;;24.65;;
69511;SDS011;70777;52.034;4.644;2023-09-18T02:56:22;34.25;;;23.27;;
69511;SDS011;70777;52.034;4.644;2023-09-18T02:58:47;33.63;;;22.75;;
69511;SDS011;70777;52.034;4.644;2023-09-18T03:01:13;34.55;;;23.65;;
69511;SDS011;70777;52.034;4.644;2023-09-18T03:03:38;35.85;;;24.45;;
69511;SDS011;70777;52.034;4.644;2023-09-18T03:06:05;37.20;;;24.42;;
69511;SDS011;70777;52.034;4.644;2023-09-18T03:08:31;38.90;;;25.65;;
69511;SDS011;70777;52.034;4.644;2023-09-18T03:10:57;38.78;;;23.77;;
69511;SDS011;70777;52.034;4.644;2023-09-18T03:13:23;35.03;;;23.70;;
69511;SDS011;70777;52.034;4.644;2023-09-18T03:15:49;40.58;;;25.40;;
69511;SDS011;70777;52.034;4.644;2023-09-18T03:18:14;38.38;;;24.50;;
69511;SDS011;70777;52.034;4.644;2023-09-18T03:20:40;38.38;;;22.42;;
69511;SDS011;70777;52.034;4.644;2023-09-18T03:23:05;40.08;;;25.23;;
69511;SDS011;70777;52.034;4.644;2023-09-18T03:25:31;37.90;;;23.58;;
69511;SDS011;70777;52.034;4.644;2023-09-18T03:27:57;37.17;;;23.73;;
69511;SDS011;70777;52.034;4.644;2023-09-18T03:30:23;38.35;;;24.65;;
69511;SDS011;70777;52.034;4.644;2023-09-18T03:32:49;38.87;;;25.03;;
69511;SDS011;70777;52.034;4.644;2023-09-18T03:35:16;40.58;;;26.20;;
69511;SDS011;70777;52.034;4.644;2023-09-18T03:37:48;40.40;;;26.02;;
69511;SDS011;70777;52.034;4.644;2023-09-18T03:40:15;38.33;;;24.90;;
69511;SDS011;70777;52.034;4.644;2023-09-18T03:42:41;33.50;;;23.77;;
69511;SDS011;70777;52.034;4.644;2023-09-18T03:45:07;37.03;;;23.67;;
69511;SDS011;70777;52.034;4.644;2023-09-18T03:47:34;38.03;;;23.30;;
69511;SDS011;70777;52.034;4.644;2023-09-18T03:50:00;30.23;;;18.90;;
69511;SDS011;70777;52.034;4.644;2023-09-18T03:52:29;25.05;;;16.60;;
69511;SDS011;70777;52.034;4.644;2023-09-18T03:54:54;29.92;;;18.08;;
69511;SDS011;70777;52.034;4.644;2023-09-18T03:57:20;29.95;;;19.20;;
69511;SDS011;70777;52.034;4.644;2023-09-18T03:59:45;27.63;;;18.35;;
69511;SDS011;70777;52.034;4.644;2023-09-18T04:02:10;32.58;;;19.05;;
69511;SDS011;70777;52.034;4.644;2023-09-18T04:04:36;28.55;;;18.40;;
69511;SDS011;70777;52.034;4.644;2023-09-18T04:07:05;25.92;;;16.73;;
69511;SDS011;70777;52.034;4.644;2023-09-18T04:09:30;25.67;;;15.23;;
69511;SDS011;70777;52.034;4.644;2023-09-18T04:11:56;21.63;;;13.45;;
69511;SDS011;70777;52.034;4.644;2023-09-18T04:14:21;21.23;;;13.07;;
69511;SDS011;70777;52.034;4.644;2023-09-18T04:16:47;19.65;;;11.30;;
69511;SDS011;70777;52.034;4.644;2023-09-18T04:19:12;19.65;;;11.38;;
69511;SDS011;70777;52.034;4.644;2023-09-18T04:21:38;16.23;;;10.70;;
69511;SDS011;70777;52.034;4.644;2023-09-18T04:24:03;19.50;;;12.15;;
69511;SDS011;70777;52.034;4.644;2023-09-18T04:26:29;16.90;;;11.40;;
69511;SDS011;70777;52.034;4.644;2023-09-18T04:29:04;16.10;;;11.47;;
69511;SDS011;70777;52.034;4.644;2023-09-18T04:31:30;17.48;;;10.82;;
69511;SDS011;70777;52.034;4.644;2023-09-18T04:33:56;15.48;;;10.23;;
69511;SDS011;70777;52.034;4.644;2023-09-18T04:36:22;17.42;;;11.02;;
69511;SDS011;70777;52.034;4.644;2023-09-18T04:38:48;15.93;;;9.85;;
69511;SDS011;70777;52.034;4.644;2023-09-18T04:41:14;14.25;;;9.95;;
69511;SDS011;70777;52.034;4.644;2023-09-18T04:43:40;14.23;;;9.77;;
69511;SDS011;70777;52.034;4.644;2023-09-18T04:46:05;17.92;;;10.18;;
69511;SDS011;70777;52.034;4.644;2023-09-18T04:48:31;17.40;;;10.50;;
69511;SDS011;70777;52.034;4.644;2023-09-18T04:50:57;13.45;;;10.23;;
69511;SDS011;70777;52.034;4.644;2023-09-18T04:53:23;14.32;;;10.57;;
69511;SDS011;70777;52.034;4.644;2023-09-18T04:55:49;19.17;;;9.57;;
69511;SDS011;70777;52.034;4.644;2023-09-18T04:58:15;16.15;;;10.48;;
69511;SDS011;70777;52.034;4.644;2023-09-18T05:00:41;15.55;;;9.75;;
69511;SDS011;70777;52.034;4.644;2023-09-18T05:03:07;21.67;;;9.43;;
69511;SDS011;70777;52.034;4.644;2023-09-18T05:05:33;18.58;;;9.15;;
69511;SDS011;70777;52.034;4.644;2023-09-18T05:08:00;16.40;;;8.90;;
69511;SDS011;70777;52.034;4.644;2023-09-18T05:10:29;17.85;;;10.02;;
69511;SDS011;70777;52.034;4.644;2023-09-18T05:12:55;17.02;;;9.32;;
69511;SDS011;70777;52.034;4.644;2023-09-18T05:15:24;16.73;;;9.25;;
69511;SDS011;70777;52.034;4.644;2023-09-18T05:17:51;15.75;;;9.23;;
69511;SDS011;70777;52.034;4.644;2023-09-18T05:20:20;15.20;;;9.30;;
69511;SDS011;70777;52.034;4.644;2023-09-18T05:22:49;14.05;;;8.93;;
69511;SDS011;70777;52.034;4.644;2023-09-18T05:25:15;15.50;;;8.75;;
69511;SDS011;70777;52.034;4.644;2023-09-18T05:27:40;15.98;;;9.07;;
69511;SDS011;70777;52.034;4.644;2023-09-18T05:30:18;15.90;;;9.07;;
69511;SDS011;70777;52.034;4.644;2023-09-18T05:32:46;13.32;;;9.35;;
69511;SDS011;70777;52.034;4.644;2023-09-18T05:37:38;22.47;;;11.23;;
69511;SDS011;70777;52.034;4.644;2023-09-18T05:40:04;21.42;;;11.18;;
69511;SDS011;70777;52.034;4.644;2023-09-18T05:42:35;19.70;;;11.82;;
69511;SDS011;70777;52.034;4.644;2023-09-18T05:45:03;18.13;;;11.95;;
69511;SDS011;70777;52.034;4.644;2023-09-18T05:47:33;18.83;;;11.93;;
69511;SDS011;70777;52.034;4.644;2023-09-18T05:50:00;22.17;;;12.50;;
69511;SDS011;70777;52.034;4.644;2023-09-18T05:52:33;20.75;;;12.63;;
69511;SDS011;70777;52.034;4.644;2023-09-18T05:54:59;19.17;;;11.30;;
69511;SDS011;70777;52.034;4.644;2023-09-18T05:57:25;19.65;;;12.57;;
69511;SDS011;70777;52.034;4.644;2023-09-18T05:59:52;25.83;;;13.73;;
69511;SDS011;70777;52.034;4.644;2023-09-18T06:02:18;22.10;;;13.35;;
69511;SDS011;70777;52.034;4.644;2023-09-18T06:04:45;21.73;;;12.85;;
69511;SDS011;70777;52.034;4.644;2023-09-18T06:07:11;22.55;;;14.45;;
69511;SDS011;70777;52.034;4.644;2023-09-18T06:09:38;21.75;;;13.40;;
69511;SDS011;70777;52.034;4.644;2023-09-18T06:12:03;20.15;;;13.63;;
69511;SDS011;70777;52.034;4.644;2023-09-18T06:14:30;26.77;;;13.68;;
69511;SDS011;70777;52.034;4.644;2023-09-18T06:16:56;21.48;;;13.40;;
69511;SDS011;70777;52.034;4.644;2023-09-18T06:19:22;25.40;;;14.20;;
69511;SDS011;70777;52.034;4.644;2023-09-18T06:21:47;24.40;;;14.00;;
69511;SDS011;70777;52.034;4.644;2023-09-18T06:24:13;20.67;;;13.23;;
69511;SDS011;70777;52.034;4.644;2023-09-18T06:26:38;21.58;;;13.88;;
69511;SDS011;70777;52.034;4.644;2023-09-18T06:29:04;22.38;;;14.18;;
69511;SDS011;70777;52.034;4.644;2023-09-18T06:31:29;22.88;;;13.75;;
69511;SDS011;70777;52.034;4.644;2023-09-18T06:33:56;22.98;;;13.57;;
69511;SDS011;70777;52.034;4.644;2023-09-18T06:36:21;20.50;;;12.85;;
69511;SDS011;70777;52.034;4.644;2023-09-18T06:38:47;21.40;;;11.95;;
69511;SDS011;70777;52.034;4.644;2023-09-18T06:41:12;19.55;;;11.70;;
69511;SDS011;70777;52.034;4.644;2023-09-18T06:43:38;19.40;;;10.70;;
69511;SDS011;70777;52.034;4.644;2023-09-18T06:46:03;15.85;;;9.43;;
69511;SDS011;70777;52.034;4.644;2023-09-18T06:48:29;18.48;;;9.88;;
69511;SDS011;70777;52.034;4.644;2023-09-18T06:50:57;15.07;;;9.85;;
69511;SDS011;70777;52.034;4.644;2023-09-18T06:53:25;13.52;;;8.50;;
69511;SDS011;70777;52.034;4.644;2023-09-18T06:55:51;13.23;;;8.07;;
69511;SDS011;70777;52.034;4.644;2023-09-18T06:58:17;15.23;;;8.55;;
69511;SDS011;70777;52.034;4.644;2023-09-18T07:00:42;12.88;;;7.40;;
69511;SDS011;70777;52.034;4.644;2023-09-18T07:03:08;14.93;;;8.57;;
69511;SDS011;70777;52.034;4.644;2023-09-18T07:05:34;11.38;;;7.35;;
69511;SDS011;70777;52.034;4.644;2023-09-18T07:08:00;14.38;;;7.57;;
69511;SDS011;70777;52.034;4.644;2023-09-18T07:10:25;11.13;;;6.85;;
69511;SDS011;70777;52.034;4.644;2023-09-18T07:12:51;14.02;;;7.60;;
69511;SDS011;70777;52.034;4.644;2023-09-18T07:15:17;12.95;;;7.55;;
69511;SDS011;70777;52.034;4.644;2023-09-18T07:17:42;10.80;;;7.05;;
69511;SDS011;70777;52.034;4.644;2023-09-18T07:20:08;9.90;;;6.00;;
69511;SDS011;70777;52.034;4.644;2023-09-18T07:22:39;8.95;;;5.57;;
69511;SDS011;70777;52.034;4.644;2023-09-18T07:25:06;9.80;;;5.10;;
69511;SDS011;70777;52.034;4.644;2023-09-18T07:27:32;10.53;;;5.23;;
69511;SDS011;70777;52.034;4.644;2023-09-18T07:29:57;8.25;;;4.68;;
69511;SDS011;70777;52.034;4.644;2023-09-18T07:32:23;8.00;;;4.40;;
69511;SDS011;70777;52.034;4.644;2023-09-18T07:34:50;7.28;;;4.22;;
69511;SDS011;70777;52.034;4.644;2023-09-18T07:37:16;7.70;;;4.03;;
69511;SDS011;70777;52.034;4.644;2023-09-18T07:39:45;8.82;;;3.67;;
69511;SDS011;70777;52.034;4.644;2023-09-18T07:42:11;8.43;;;4.00;;
69511;SDS011;70777;52.034;4.644;2023-09-18T07:44:36;6.67;;;3.53;;
69511;SDS011;70777;52.034;4.644;2023-09-18T07:47:02;5.15;;;3.13;;
69511;SDS011;70777;52.034;4.644;2023-09-18T07:49:28;7.43;;;3.13;;
69511;SDS011;70777;52.034;4.644;2023-09-18T07:51:53;8.27;;;3.73;;
69511;SDS011;70777;52.034;4.644;2023-09-18T07:54:19;8.57;;;3.20;;
69511;SDS011;70777;52.034;4.644;2023-09-18T07:56:45;7.57;;;3.20;;
69511;SDS011;70777;52.034;4.644;2023-09-18T07:59:10;5.47;;;2.90;;
69511;SDS011;70777;52.034;4.644;2023-09-18T08:01:36;6.87;;;3.10;;
69511;SDS011;70777;52.034;4.644;2023-09-18T08:04:01;5.47;;;3.30;;
69511;SDS011;70777;52.034;4.644;2023-09-18T08:08:53;7.77;;;3.30;;
69511;SDS011;70777;52.034;4.644;2023-09-18T08:11:19;6.97;;;3.57;;
69511;SDS011;70777;52.034;4.644;2023-09-18T08:13:44;6.27;;;3.90;;
69511;SDS011;70777;52.034;4.644;2023-09-18T08:16:09;6.97;;;3.53;;
69511;SDS011;70777;52.034;4.644;2023-09-18T08:18:35;10.53;;;4.43;;
69511;SDS011;70777;52.034;4.644;2023-09-18T08:21:01;4.83;;;3.23;;
69511;SDS011;70777;52.034;4.644;2023-09-18T08:23:26;7.33;;;3.50;;
69511;SDS011;70777;52.034;4.644;2023-09-18T08:25:52;6.43;;;2.85;;
69511;SDS011;70777;52.034;4.644;2023-09-18T08:28:21;4.45;;;3.20;;
69511;SDS011;70777;52.034;4.644;2023-09-18T08:30:46;5.70;;;3.37;;
69511;SDS011;70777;52.034;4.644;2023-09-18T08:33:16;6.80;;;2.90;;
69511;SDS011;70777;52.034;4.644;2023-09-18T08:35:42;5.72;;;3.85;;
69511;SDS011;70777;52.034;4.644;2023-09-18T08:38:09;6.93;;;3.63;;
69511;SDS011;70777;52.034;4.644;2023-09-18T08:40:34;6.30;;;3.67;;
69511;SDS011;70777;52.034;4.644;2023-09-18T08:43:00;5.90;;;3.93;;
69511;SDS011;70777;52.034;4.644;2023-09-18T08:48:28;8.80;;;3.47;;
69511;SDS011;70777;52.034;4.644;2023-09-18T08:51:03;8.73;;;3.90;;
69511;SDS011;70777;52.034;4.644;2023-09-18T08:53:30;6.18;;;3.90;;
69511;SDS011;70777;52.034;4.644;2023-09-18T08:58:24;6.60;;;3.63;;
69511;SDS011;70777;52.034;4.644;2023-09-18T09:00:50;6.18;;;3.83;;
69511;SDS011;70777;52.034;4.644;2023-09-18T09:03:16;8.10;;;3.97;;
69511;SDS011;70777;52.034;4.644;2023-09-18T09:05:42;7.47;;;3.70;;
69511;SDS011;70777;52.034;4.644;2023-09-18T09:08:07;9.77;;;3.97;;
69511;SDS011;70777;52.034;4.644;2023-09-18T09:10:32;10.50;;;4.40;;
69511;SDS011;70777;52.034;4.644;2023-09-18T09:12:58;7.35;;;4.10;;
69511;SDS011;70777;52.034;4.644;2023-09-18T09:15:29;6.10;;;3.45;;
69511;SDS011;70777;52.034;4.644;2023-09-18T09:18:07;6.00;;;3.10;;
69511;SDS011;70777;52.034;4.644;2023-09-18T09:20:34;7.20;;;3.50;;
69511;SDS011;70777;52.034;4.644;2023-09-18T09:23:03;7.07;;;3.28;;
69511;SDS011;70777;52.034;4.644;2023-09-18T09:25:31;5.88;;;3.20;;
69511;SDS011;70777;52.034;4.644;2023-09-18T09:28:02;6.93;;;3.10;;
69511;SDS011;70777;52.034;4.644;2023-09-18T09:30:30;5.95;;;3.10;;
69511;SDS011;70777;52.034;4.644;2023-09-18T09:32:56;5.70;;;2.90;;
69511;SDS011;70777;52.034;4.644;2023-09-18T09:35:26;5.15;;;3.00;;
69511;SDS011;70777;52.034;4.644;2023-09-18T09:37:53;5.65;;;3.17;;
69511;SDS011;70777;52.034;4.644;2023-09-18T09:40:21;5.15;;;3.20;;
69511;SDS011;70777;52.034;4.644;2023-09-18T09:42:47;9.13;;;3.08;;
69511;SDS011;70777;52.034;4.644;2023-09-18T09:45:13;5.30;;;2.80;;
69511;SDS011;70777;52.034;4.644;2023-09-18T09:47:42;5.35;;;2.28;;
69511;SDS011;70777;52.034;4.644;2023-09-18T09:50:09;4.93;;;2.60;;
69511;SDS011;70777;52.034;4.644;2023-09-18T09:52:36;5.50;;;2.67;;
69511;SDS011;70777;52.034;4.644;2023-09-18T09:55:16;4.25;;;2.28;;
69511;SDS011;70777;52.034;4.644;2023-09-18T09:57:46;3.63;;;2.10;;
69511;SDS011;70777;52.034;4.644;2023-09-18T10:00:16;5.20;;;2.70;;
69511;SDS011;70777;52.034;4.644;2023-09-18T10:02:53;4.57;;;2.60;;
69511;SDS011;70777;52.034;4.644;2023-09-18T10:05:21;4.93;;;2.15;;
69511;SDS011;70777;52.034;4.644;2023-09-18T10:07:53;5.70;;;2.53;;
69511;SDS011;70777;52.034;4.644;2023-09-18T10:15:10;3.63;;;2.30;;
69511;SDS011;70777;52.034;4.644;2023-09-18T10:17:37;4.03;;;2.50;;
69511;SDS011;70777;52.034;4.644;2023-09-18T10:20:14;3.55;;;2.53;;
69511;SDS011;70777;52.034;4.644;2023-09-18T10:22:46;5.25;;;2.65;;
69511;SDS011;70777;52.034;4.644;2023-09-18T10:25:23;5.85;;;2.63;;
69511;SDS011;70777;52.034;4.644;2023-09-18T10:27:50;8.77;;;2.95;;
69511;SDS011;70777;52.034;4.644;2023-09-18T10:30:22;7.72;;;2.70;;
69511;SDS011;70777;52.034;4.644;2023-09-18T10:32:48;3.78;;;2.60;;
69511;SDS011;70777;52.034;4.644;2023-09-18T10:35:15;5.07;;;2.65;;
69511;SDS011;70777;52.034;4.644;2023-09-18T10:37:43;6.27;;;3.00;;
69511;SDS011;70777;52.034;4.644;2023-09-18T10:40:10;3.58;;;2.67;;
69511;SDS011;70777;52.034;4.644;2023-09-18T10:42:37;4.10;;;2.53;;
69511;SDS011;70777;52.034;4.644;2023-09-18T10:45:04;5.88;;;2.92;;
69511;SDS011;70777;52.034;4.644;2023-09-18T10:47:30;6.40;;;3.38;;
69511;SDS011;70777;52.034;4.644;2023-09-18T10:49:57;7.18;;;2.95;;
69511;SDS011;70777;52.034;4.644;2023-09-18T10:52:22;5.90;;;2.80;;
69511;SDS011;70777;52.034;4.644;2023-09-18T10:54:48;6.37;;;2.80;;
69511;SDS011;70777;52.034;4.644;2023-09-18T10:57:13;7.23;;;3.23;;
69511;SDS011;70777;52.034;4.644;2023-09-18T10:59:43;6.13;;;2.70;;
69511;SDS011;70777;52.034;4.644;2023-09-18T11:02:09;6.32;;;2.80;;
69511;SDS011;70777;52.034;4.644;2023-09-18T11:04:35;3.97;;;2.63;;
69511;SDS011;70777;52.034;4.644;2023-09-18T11:07:01;4.30;;;2.60;;
69511;SDS011;70777;52.034;4.644;2023-09-18T11:09:29;5.05;;;2.33;;
69511;SDS011;70777;52.034;4.644;2023-09-18T11:14:23;5.32;;;2.80;;
69511;SDS011;70777;52.034;4.644;2023-09-18T11:16:54;13.60;;;2.70;;
69511;SDS011;70777;52.034;4.644;2023-09-18T11:19:21;6.20;;;2.70;;
69511;SDS011;70777;52.034;4.644;2023-09-18T11:21:46;3.63;;;2.10;;
69511;SDS011;70777;52.034;4.644;2023-09-18T11:24:19;5.40;;;2.10;;
69511;SDS011;70777;52.034;4.644;2023-09-18T11:26:46;5.13;;;2.40;;
69511;SDS011;70777;52.034;4.644;2023-09-18T11:29:15;3.47;;;2.40;;
69511;SDS011;70777;52.034;4.644;2023-09-18T11:36:44;4.28;;;2.90;;
69511;SDS011;70777;52.034;4.644;2023-09-18T11:39:10;5.43;;;3.30;;
69511;SDS011;70777;52.034;4.644;2023-09-18T11:41:36;7.15;;;3.40;;
69511;SDS011;70777;52.034;4.644;2023-09-18T11:46:50;6.25;;;3.40;;
69511;SDS011;70777;52.034;4.644;2023-09-18T11:49:23;10.30;;;4.25;;
69511;SDS011;70777;52.034;4.644;2023-09-18T11:51:51;8.88;;;3.70;;
69511;SDS011;70777;52.034;4.644;2023-09-18T11:54:17;9.13;;;3.30;;
69511;SDS011;70777;52.034;4.644;2023-09-18T11:56:43;4.75;;;3.20;;
69511;SDS011;70777;52.034;4.644;2023-09-18T11:59:09;7.63;;;3.50;;
69511;SDS011;70777;52.034;4.644;2023-09-18T12:01:35;7.22;;;3.60;;
69511;SDS011;70777;52.034;4.644;2023-09-18T12:04:02;8.68;;;3.35;;
69511;SDS011;70777;52.034;4.644;2023-09-18T12:06:35;7.45;;;3.58;;
69511;SDS011;70777;52.034;4.644;2023-09-18T12:09:01;6.35;;;3.47;;
69511;SDS011;70777;52.034;4.644;2023-09-18T12:11:28;9.05;;;3.20;;
69511;SDS011;70777;52.034;4.644;2023-09-18T12:13:54;4.57;;;3.47;;
69511;SDS011;70777;52.034;4.644;2023-09-18T12:16:19;7.60;;;3.23;;
69511;SDS011;70777;52.034;4.644;2023-09-18T12:18:45;7.03;;;3.27;;
69511;SDS011;70777;52.034;4.644;2023-09-18T12:21:13;4.68;;;2.78;;
69511;SDS011;70777;52.034;4.644;2023-09-18T12:23:40;6.40;;;3.10;;
69511;SDS011;70777;52.034;4.644;2023-09-18T12:26:09;4.53;;;2.97;;
69511;SDS011;70777;52.034;4.644;2023-09-18T12:28:36;5.72;;;2.92;;
69511;SDS011;70777;52.034;4.644;2023-09-18T12:31:05;3.00;;;2.30;;
69511;SDS011;70777;52.034;4.644;2023-09-18T12:33:34;5.78;;;2.72;;
69511;SDS011;70777;52.034;4.644;2023-09-18T12:36:01;8.32;;;2.72;;
69511;SDS011;70777;52.034;4.644;2023-09-18T12:38:30;5.03;;;2.40;;
69511;SDS011;70777;52.034;4.644;2023-09-18T12:40:56;5.33;;;2.57;;
69511;SDS011;70777;52.034;4.644;2023-09-18T12:43:25;5.82;;;3.17;;
69511;SDS011;70777;52.034;4.644;2023-09-18T12:45:55;12.73;;;4.22;;
69511;SDS011;70777;52.034;4.644;2023-09-18T12:48:21;4.80;;;2.78;;
69511;SDS011;70777;52.034;4.644;2023-09-18T12:50:51;6.00;;;3.23;;
69511;SDS011;70777;52.034;4.644;2023-09-18T12:53:21;5.32;;;2.70;;
69511;SDS011;70777;52.034;4.644;2023-09-18T12:55:47;6.57;;;2.40;;
69511;SDS011;70777;52.034;4.644;2023-09-18T12:58:13;5.18;;;2.38;;
69511;SDS011;70777;52.034;4.644;2023-09-18T13:00:44;4.67;;;2.70;;
69511;SDS011;70777;52.034;4.644;2023-09-18T13:03:16;4.40;;;2.80;;
69511;SDS011;70777;52.034;4.644;2023-09-18T13:05:42;5.20;;;2.80;;
69511;SDS011;70777;52.034;4.644;2023-09-18T13:08:08;8.05;;;2.88;;
69511;SDS011;70777;52.034;4.644;2023-09-18T13:10:43;5.50;;;2.92;;
69511;SDS011;70777;52.034;4.644;2023-09-18T13:13:09;3.67;;;2.28;;
69511;SDS011;70777;52.034;4.644;2023-09-18T13:15:41;4.28;;;2.08;;
69511;SDS011;70777;52.034;4.644;2023-09-18T13:18:09;4.60;;;2.40;;
69511;SDS011;70777;52.034;4.644;2023-09-18T13:20:36;5.90;;;2.20;;
69511;SDS011;70777;52.034;4.644;2023-09-18T13:23:01;3.63;;;2.03;;
69511;SDS011;70777;52.034;4.644;2023-09-18T13:25:32;4.07;;;2.35;;
69511;SDS011;70777;52.034;4.644;2023-09-18T13:28:03;7.03;;;2.25;;
69511;SDS011;70777;52.034;4.644;2023-09-18T13:30:30;6.63;;;2.25;;
69511;SDS011;70777;52.034;4.644;2023-09-18T13:33:02;4.68;;;2.25;;
69511;SDS011;70777;52.034;4.644;2023-09-18T13:35:32;8.70;;;2.55;;
69511;SDS011;70777;52.034;4.644;2023-09-18T13:37:58;7.57;;;2.67;;
69511;SDS011;70777;52.034;4.644;2023-09-18T13:40:24;6.73;;;3.23;;
69511;SDS011;70777;52.034;4.644;2023-09-18T13:42:50;6.25;;;2.97;;
69511;SDS011;70777;52.034;4.644;2023-09-18T13:45:15;6.73;;;2.67;;
69511;SDS011;70777;52.034;4.644;2023-09-18T13:47:43;6.70;;;2.40;;
69511;SDS011;70777;52.034;4.644;2023-09-18T13:50:09;6.13;;;2.57;;
69511;SDS011;70777;52.034;4.644;2023-09-18T13:52:35;8.80;;;2.70;;
69511;SDS011;70777;52.034;4.644;2023-09-18T13:55:04;5.93;;;2.28;;
69511;SDS011;70777;52.034;4.644;2023-09-18T13:57:30;5.15;;;2.58;;
69511;SDS011;70777;52.034;4.644;2023-09-18T13:59:56;6.22;;;2.28;;
69511;SDS011;70777;52.034;4.644;2023-09-18T14:02:22;5.13;;;2.40;;
69511;SDS011;70777;52.034;4.644;2023-09-18T14:04:52;4.10;;;2.47;;
69511;SDS011;70777;52.034;4.644;2023-09-18T14:07:17;5.17;;;2.33;;
69511;SDS011;70777;52.034;4.644;2023-09-18T14:09:42;3.73;;;2.23;;
69511;SDS011;70777;52.034;4.644;2023-09-18T14:12:08;6.33;;;2.77;;
69511;SDS011;70777;52.034;4.644;2023-09-18T14:14:34;6.53;;;2.20;;
69511;SDS011;70777;52.034;4.644;2023-09-18T14:17:00;5.43;;;2.33;;
69511;SDS011;70777;52.034;4.644;2023-09-18T14:19:26;5.23;;;2.40;;
69511;SDS011;70777;52.034;4.644;2023-09-18T14:21:51;5.17;;;2.80;;
69511;SDS011;70777;52.034;4.644;2023-09-18T14:24:17;6.83;;;2.60;;
69511;SDS011;70777;52.034;4.644;2023-09-18T14:26:47;4.97;;;2.83;;
69511;SDS011;70777;52.034;4.644;2023-09-18T14:29:12;4.00;;;2.60;;
69511;SDS011;70777;52.034;4.644;2023-09-18T14:31:39;5.43;;;2.87;;
69511;SDS011;70777;52.034;4.644;2023-09-18T14:34:04;9.30;;;3.90;;
69511;SDS011;70777;52.034;4.644;2023-09-18T14:36:33;7.47;;;4.35;;
69511;SDS011;70777;52.034;4.644;2023-09-18T14:38:59;7.35;;;4.05;;
69511;SDS011;70777;52.034;4.644;2023-09-18T14:41:26;7.85;;;4.00;;
69511;SDS011;70777;52.034;4.644;2023-09-18T14:43:51;9.27;;;3.60;;
69511;SDS011;70777;52.034;4.644;2023-09-18T14:46:17;4.40;;;2.50;;
69511;SDS011;70777;52.034;4.644;2023-09-18T14:48:43;6.35;;;3.25;;
69511;SDS011;70777;52.034;4.644;2023-09-18T14:51:08;6.32;;;3.08;;
69511;SDS011;70777;52.034;4.644;2023-09-18T14:53:34;6.55;;;3.28;;
69511;SDS011;70777;52.034;4.644;2023-09-18T14:55:59;3.47;;;1.67;;
69511;SDS011;70777;52.034;4.644;2023-09-18T14:58:25;4.45;;;2.20;;
69511;SDS011;70777;52.034;4.644;2023-09-18T15:00:50;4.75;;;1.70;;